Time;durP1;ratioP1;P1;durP2;ratioP2;P2;SDS_P1;SDS_P2;PMS_P1;PMS_P2;Temp;Humidity;BMP_temperature;BMP_pressure;BME280_temperature;BME280_humidity;BME280_pressure;Samples;Min_cycle;Max_cycle;Signal;HPM_P1;HPM_P2
2024/03/22 00:02:09;;;;;;;42.42;34.78;;;9.60;99.90;;;;;;7375969;19;20032;-67
2024/03/22 00:04:38;;;;;;;45.47;35.33;;;9.60;99.90;;;;;;7360955;19;20018;-68
2024/03/22 00:07:07;;;;;;;45.58;36.03;;;9.60;99.90;;;;;;7376306;19;20030;-68
2024/03/22 00:09:36;;;;;;;45.85;35.80;;;9.60;99.90;;;;;;7373843;19;20026;-67
2024/03/22 00:12:04;;;;;;;48.17;36.17;;;9.70;99.90;;;;;;7374035;19;20023;-65
2024/03/22 00:14:30;;;;;;;50.00;37.80;;;9.70;99.90;;;;;;7370683;19;20023;-67
2024/03/22 00:16:56;;;;;;;50.78;38.38;;;9.70;99.90;;;;;;7377834;19;20543;-67
2024/03/22 00:19:23;;;;;;;48.65;37.72;;;9.70;99.90;;;;;;7366631;19;20029;-67
2024/03/22 00:21:49;;;;;;;50.70;38.80;;;9.70;99.90;;;;;;7374743;19;20044;-67
2024/03/22 00:24:16;;;;;;;49.50;39.65;;;9.80;99.90;;;;;;7370686;19;20023;-64
2024/03/22 00:26:42;;;;;;;50.55;38.95;;;9.70;99.90;;;;;;7370210;19;20022;-64
2024/03/22 00:29:15;;;;;;;52.17;39.42;;;9.80;99.90;;;;;;7367513;19;21425;-68
2024/03/22 00:31:41;;;;;;;55.47;42.05;;;9.80;99.90;;;;;;7372312;19;20022;-64
2024/03/22 00:34:08;;;;;;;54.35;40.30;;;9.80;99.90;;;;;;7372222;19;20030;-67
2024/03/22 00:36:34;;;;;;;55.95;42.10;;;9.80;99.90;;;;;;7364539;19;20021;-64
2024/03/22 00:39:01;;;;;;;55.55;40.25;;;9.80;99.90;;;;;;7373806;19;20015;-65
2024/03/22 00:41:27;;;;;;;54.50;40.75;;;9.90;99.90;;;;;;7370718;19;20094;-64
2024/03/22 00:43:53;;;;;;;55.28;41.40;;;9.90;99.90;;;;;;7369741;19;20022;-68
2024/03/22 00:46:19;;;;;;;57.42;39.72;;;9.90;99.90;;;;;;7368161;19;20026;-69
2024/03/22 00:48:45;;;;;;;60.97;45.63;;;9.90;99.90;;;;;;7373452;19;20353;-65
2024/03/22 00:51:11;;;;;;;58.72;41.88;;;9.90;99.90;;;;;;7370993;19;20783;-65
2024/03/22 00:53:38;;;;;;;57.33;42.28;;;9.90;99.90;;;;;;7364681;19;20056;-65
2024/03/22 00:56:07;;;;;;;58.17;43.65;;;10.00;99.90;;;;;;7370401;19;20022;-65
2024/03/22 00:58:33;;;;;;;58.05;42.75;;;9.90;99.90;;;;;;7374840;19;20419;-65
2024/03/22 01:00:59;;;;;;;60.65;43.35;;;10.00;99.90;;;;;;7371120;19;20074;-68
2024/03/22 01:03:25;;;;;;;60.45;45.03;;;10.00;99.90;;;;;;7373345;19;20032;-65
2024/03/22 01:05:54;;;;;;;61.72;45.00;;;10.00;99.90;;;;;;7368750;19;20026;-64
2024/03/22 01:08:20;;;;;;;60.10;44.42;;;10.00;99.90;;;;;;7367348;19;20026;-67
2024/03/22 01:10:46;;;;;;;57.45;43.10;;;9.90;99.90;;;;;;7367951;19;20025;-68
2024/03/22 01:13:12;;;;;;;61.63;45.88;;;10.00;99.90;;;;;;7369443;19;20074;-64
2024/03/22 01:15:38;;;;;;;60.47;44.75;;;10.00;99.90;;;;;;7371654;19;20592;-64
2024/03/22 01:18:05;;;;;;;63.97;46.25;;;10.00;99.90;;;;;;7369021;19;20082;-70
2024/03/22 01:20:32;;;;;;;62.13;45.17;;;10.00;99.90;;;;;;7368282;19;20423;-64
2024/03/22 01:23:00;;;;;;;64.47;47.70;;;10.10;99.90;;;;;;7368058;19;20097;-67
2024/03/22 01:25:27;;;;;;;65.40;46.90;;;10.10;99.90;;;;;;7374623;19;21095;-64
2024/03/22 01:27:55;;;;;;;66.50;48.78;;;10.10;99.90;;;;;;7369902;19;20015;-67
2024/03/22 01:30:21;;;;;;;66.22;44.92;;;10.10;99.90;;;;;;7371463;19;20025;-67
2024/03/22 01:32:47;;;;;;;63.00;46.22;;;10.10;99.90;;;;;;7363420;19;20116;-64
2024/03/22 01:35:14;;;;;;;71.35;49.47;;;10.20;99.90;;;;;;7366287;19;20534;-67
2024/03/22 01:37:40;;;;;;;66.30;47.33;;;10.20;99.90;;;;;;7368997;19;20018;-68
2024/03/22 01:40:08;;;;;;;66.20;48.97;;;10.20;99.90;;;;;;7372269;19;20141;-68
2024/03/22 01:42:34;;;;;;;67.97;48.80;;;10.20;99.90;;;;;;7364357;19;20044;-68
2024/03/22 01:45:00;;;;;;;68.78;47.63;;;10.20;99.90;;;;;;7372611;19;20022;-64
2024/03/22 01:47:26;;;;;;;64.63;46.42;;;10.20;99.90;;;;;;7369124;19;20482;-64
2024/03/22 01:49:55;;;;;;;69.28;48.60;;;10.20;99.90;;;;;;7371565;19;20022;-64
2024/03/22 01:52:21;;;;;;;67.05;47.83;;;10.20;99.90;;;;;;7365337;19;20051;-64
2024/03/22 01:54:49;;;;;;;67.57;48.53;;;10.30;99.90;;;;;;7367418;19;20801;-64
2024/03/22 01:57:15;;;;;;;64.93;48.25;;;10.30;99.90;;;;;;7365582;19;20030;-65
2024/03/22 01:59:42;;;;;;;65.85;45.65;;;10.30;99.90;;;;;;7373110;19;20022;-67
2024/03/22 02:02:08;;;;;;;70.38;50.10;;;10.30;99.90;;;;;;7370637;19;20022;-64
2024/03/22 02:04:35;;;;;;;70.28;50.47;;;10.30;99.90;;;;;;7364073;19;20477;-68
2024/03/22 02:07:01;;;;;;;66.85;49.25;;;10.30;99.90;;;;;;7372732;19;20040;-64
2024/03/22 02:09:27;;;;;;;69.30;48.55;;;10.30;99.90;;;;;;7369559;19;20094;-69
2024/03/22 02:11:53;;;;;;;65.88;48.88;;;10.30;99.90;;;;;;7365149;19;20026;-65
2024/03/22 02:14:20;;;;;;;74.40;50.08;;;10.30;99.90;;;;;;7368957;19;20027;-64
2024/03/22 02:16:46;;;;;;;71.65;50.25;;;10.30;99.90;;;;;;7367033;19;20018;-64
2024/03/22 02:19:12;;;;;;;66.45;48.78;;;10.30;99.90;;;;;;7366389;19;20018;-68
2024/03/22 02:21:39;;;;;;;75.20;51.47;;;10.30;99.90;;;;;;7364084;19;20021;-68
2024/03/22 02:24:06;;;;;;;71.60;48.70;;;10.30;99.90;;;;;;7373306;19;20015;-65
2024/03/22 02:29:40;;;;;;;71.13;49.08;;;10.30;99.90;;;;;;7369398;19;20078;-69
2024/03/22 02:32:06;;;;;;;69.03;50.25;;;10.40;99.90;;;;;;7365683;19;20022;-64
2024/03/22 02:34:36;;;;;;;71.07;49.47;;;10.30;99.90;;;;;;7365976;19;20512;-65
2024/03/22 02:37:02;;;;;;;72.97;51.42;;;10.30;99.90;;;;;;7370575;19;20044;-64
2024/03/22 02:39:28;;;;;;;74.90;50.20;;;10.30;99.90;;;;;;7361231;19;20082;-64
2024/03/22 02:41:55;;;;;;;74.68;51.72;;;10.40;99.90;;;;;;7370690;19;20022;-67
2024/03/22 02:44:22;;;;;;;73.60;53.45;;;10.40;99.90;;;;;;7367342;19;20394;-64
2024/03/22 02:46:48;;;;;;;72.47;51.03;;;10.40;99.90;;;;;;7364232;19;20018;-66
2024/03/22 02:49:15;;;;;;;71.65;49.60;;;10.40;99.90;;;;;;7368653;19;20018;-64
2024/03/22 02:51:41;;;;;;;71.20;50.85;;;10.40;99.90;;;;;;7369358;19;20370;-65
2024/03/22 02:54:07;;;;;;;76.18;51.83;;;10.40;99.90;;;;;;7372580;19;20019;-64
2024/03/22 02:56:33;;;;;;;71.47;51.92;;;10.40;99.90;;;;;;7367112;19;20021;-68
2024/03/22 02:59:00;;;;;;;74.55;51.33;;;10.40;99.90;;;;;;7368958;19;20022;-64
2024/03/22 03:01:26;;;;;;;77.30;52.88;;;10.40;99.90;;;;;;7362311;19;20498;-64
2024/03/22 03:03:52;;;;;;;74.65;50.72;;;10.40;99.90;;;;;;7366822;19;20022;-68
2024/03/22 03:06:19;;;;;;;79.15;52.28;;;10.40;99.90;;;;;;7361842;19;20026;-67
2024/03/22 03:08:46;;;;;;;70.90;50.83;;;10.50;99.90;;;;;;7370238;19;20022;-67
2024/03/22 03:11:15;;;;;;;78.80;55.33;;;10.50;99.90;;;;;;7368278;19;20018;-64
2024/03/22 03:13:41;;;;;;;77.45;54.05;;;10.60;99.90;;;;;;7375213;19;20018;-64
2024/03/22 03:16:07;;;;;;;73.07;51.53;;;10.60;99.90;;;;;;7376726;19;20036;-67
2024/03/22 03:18:33;;;;;;;77.03;52.20;;;10.60;99.90;;;;;;7374635;19;20040;-66
2024/03/22 03:21:00;;;;;;;76.80;52.20;;;10.60;99.90;;;;;;7375468;19;20025;-64
2024/03/22 03:23:27;;;;;;;81.65;54.42;;;10.70;99.90;;;;;;7373173;19;20026;-66
2024/03/22 03:25:53;;;;;;;69.88;50.50;;;10.70;99.90;;;;;;7379365;19;20022;-64
2024/03/22 03:28:19;;;;;;;74.82;54.15;;;10.70;99.90;;;;;;7373082;19;20019;-70
2024/03/22 03:30:45;;;;;;;74.45;53.25;;;10.70;99.90;;;;;;7375369;19;20023;-63
2024/03/22 03:33:12;;;;;;;76.55;53.70;;;10.70;99.90;;;;;;7375662;19;20019;-64
2024/03/22 03:35:38;;;;;;;71.40;51.20;;;10.80;99.90;;;;;;7370740;19;20015;-64
2024/03/22 03:38:04;;;;;;;75.35;50.55;;;10.80;99.90;;;;;;7367948;19;20500;-64
2024/03/22 03:40:31;;;;;;;70.60;51.70;;;10.80;99.90;;;;;;7379587;19;20015;-64
2024/03/22 03:42:57;;;;;;;74.18;50.30;;;10.80;99.90;;;;;;7373575;19;20378;-68
2024/03/22 03:45:23;;;;;;;75.28;52.30;;;10.80;99.90;;;;;;7375099;19;20021;-67
2024/03/22 03:47:49;;;;;;;74.32;52.05;;;10.80;99.90;;;;;;7375493;19;20022;-65
2024/03/22 03:50:15;;;;;;;70.18;49.35;;;10.80;99.90;;;;;;7369511;19;20022;-68
2024/03/22 03:52:42;;;;;;;73.97;49.30;;;10.80;99.90;;;;;;7373303;19;20030;-65
2024/03/22 03:55:08;;;;;;;74.40;51.70;;;10.70;99.90;;;;;;7371330;19;20019;-65
2024/03/22 03:57:34;;;;;;;68.30;48.13;;;10.70;99.90;;;;;;7376382;19;20035;-64
2024/03/22 04:00:01;;;;;;;73.07;48.95;;;10.70;99.90;;;;;;7374444;19;20055;-64
2024/03/22 04:02:27;;;;;;;69.00;47.40;;;10.70;99.90;;;;;;7374033;19;20018;-68
2024/03/22 04:04:53;;;;;;;69.68;48.25;;;10.60;99.90;;;;;;7376380;19;20607;-68
2024/03/22 04:07:22;;;;;;;69.47;49.10;;;10.60;99.90;;;;;;7372239;19;20018;-68
2024/03/22 04:09:48;;;;;;;68.43;47.90;;;10.70;99.90;;;;;;7376218;19;20022;-68
2024/03/22 04:12:14;;;;;;;68.53;48.58;;;10.60;99.90;;;;;;7373684;19;20017;-68
2024/03/22 04:14:41;;;;;;;65.53;47.28;;;10.60;99.90;;;;;;7378342;19;20019;-68
2024/03/22 04:17:07;;;;;;;70.10;50.17;;;10.60;99.90;;;;;;7369813;19;20441;-68
2024/03/22 04:19:34;;;;;;;75.40;51.40;;;10.60;99.90;;;;;;7372282;19;20388;-65
2024/03/22 04:22:00;;;;;;;72.32;50.35;;;10.60;99.90;;;;;;7375973;19;20045;-64
2024/03/22 04:24:27;;;;;;;74.10;50.63;;;10.70;99.90;;;;;;7374624;19;20070;-65
2024/03/22 04:26:53;;;;;;;66.82;49.15;;;10.70;99.90;;;;;;7374830;19;20037;-68
2024/03/22 04:29:19;;;;;;;74.32;50.83;;;10.60;99.90;;;;;;7371264;19;21049;-65
2024/03/22 04:31:45;;;;;;;74.05;49.83;;;10.70;99.90;;;;;;7375422;19;20029;-68
2024/03/22 04:34:12;;;;;;;69.55;48.45;;;10.70;99.90;;;;;;7374931;19;20018;-68
2024/03/22 04:36:38;;;;;;;75.57;50.33;;;10.60;99.90;;;;;;7372150;19;20025;-69
2024/03/22 04:39:04;;;;;;;71.85;47.35;;;10.70;99.90;;;;;;7375700;19;20485;-64
2024/03/22 04:41:30;;;;;;;72.70;50.08;;;10.70;99.90;;;;;;7376320;19;20464;-65
2024/03/22 04:43:56;;;;;;;76.70;48.97;;;10.70;99.90;;;;;;7376529;19;20784;-68
2024/03/22 04:46:23;;;;;;;67.95;50.40;;;10.70;99.90;;;;;;7374998;19;20027;-65
2024/03/22 04:48:49;;;;;;;72.07;48.35;;;10.70;99.90;;;;;;7377946;19;20018;-65
2024/03/22 04:51:15;;;;;;;75.53;50.78;;;10.60;99.90;;;;;;7377429;19;20108;-64
2024/03/22 04:53:41;;;;;;;80.45;51.20;;;10.70;99.90;;;;;;7378823;19;20647;-65
2024/03/22 04:56:09;;;;;;;77.88;50.83;;;10.60;99.90;;;;;;7374780;19;20022;-69
2024/03/22 04:58:35;;;;;;;69.15;48.35;;;10.60;99.90;;;;;;7377283;19;21080;-65
2024/03/22 05:01:01;;;;;;;76.93;52.30;;;10.70;99.90;;;;;;7377309;19;20025;-64
2024/03/22 05:03:27;;;;;;;78.47;50.80;;;10.60;99.90;;;;;;7375357;19;20041;-64
2024/03/22 05:05:55;;;;;;;77.20;51.40;;;10.60;99.90;;;;;;7375080;19;20025;-68
2024/03/22 05:08:21;;;;;;;70.50;49.72;;;10.60;99.90;;;;;;7370611;19;20018;-64
2024/03/22 05:10:47;;;;;;;69.95;48.10;;;10.60;99.90;;;;;;7376750;19;20022;-68
2024/03/22 05:13:13;;;;;;;71.43;49.92;;;10.60;99.90;;;;;;7371638;19;20023;-68
2024/03/22 05:15:40;;;;;;;77.05;51.75;;;10.60;99.90;;;;;;7369936;19;20025;-68
2024/03/22 05:18:06;;;;;;;78.70;50.63;;;10.60;99.90;;;;;;7368376;19;20086;-63
2024/03/22 05:20:32;;;;;;;75.15;52.22;;;10.60;99.90;;;;;;7370020;19;20125;-63
2024/03/22 05:22:59;;;;;;;73.57;48.85;;;10.60;99.90;;;;;;7371210;19;20018;-63
2024/03/22 05:25:26;;;;;;;69.80;46.10;;;10.60;99.90;;;;;;7368936;19;20022;-64
2024/03/22 05:27:52;;;;;;;72.15;48.65;;;10.60;99.90;;;;;;7374191;19;20041;-68
2024/03/22 05:30:18;;;;;;;73.05;49.10;;;10.70;99.90;;;;;;7373350;19;20520;-66
2024/03/22 05:32:44;;;;;;;67.72;47.95;;;10.60;99.90;;;;;;7371473;19;20022;-66
2024/03/22 05:35:11;;;;;;;73.82;49.10;;;10.60;99.90;;;;;;7373672;19;20056;-65
2024/03/22 05:37:37;;;;;;;74.40;48.58;;;10.60;99.90;;;;;;7372764;19;20651;-68
2024/03/22 05:40:04;;;;;;;70.10;47.45;;;10.60;99.90;;;;;;7377247;19;20764;-63
2024/03/22 05:42:31;;;;;;;71.75;46.67;;;10.60;99.90;;;;;;7371868;19;20019;-64
2024/03/22 05:44:57;;;;;;;70.82;46.28;;;10.60;99.90;;;;;;7369213;19;20014;-66
2024/03/22 05:47:23;;;;;;;73.63;48.00;;;10.60;99.90;;;;;;7374689;19;20022;-67
2024/03/22 05:49:49;;;;;;;71.70;44.60;;;10.50;99.90;;;;;;7374939;19;20018;-64
2024/03/22 05:52:18;;;;;;;72.70;47.85;;;10.50;99.90;;;;;;7375815;19;20019;-64
2024/03/22 05:54:45;;;;;;;76.75;48.40;;;10.40;99.90;;;;;;7373581;19;20018;-63
2024/03/22 05:57:11;;;;;;;77.82;46.03;;;10.40;99.90;;;;;;7370825;19;20010;-66
2024/03/22 05:59:38;;;;;;;73.75;47.67;;;10.40;99.90;;;;;;7374129;19;20019;-66
2024/03/22 06:02:05;;;;;;;77.38;48.42;;;10.30;99.90;;;;;;7375941;19;20021;-67
2024/03/22 06:04:31;;;;;;;85.15;49.35;;;10.30;99.90;;;;;;7373533;19;20018;-67
2024/03/22 06:07:03;;;;;;;70.55;46.88;;;10.30;99.90;;;;;;7374736;19;20037;-67
2024/03/22 06:09:45;;;;;;;70.70;45.20;;;10.30;99.90;;;;;;7370856;19;20374;-69
2024/03/22 06:12:18;;;;;;;76.80;45.92;;;10.30;99.90;;;;;;7374688;19;20045;-67
2024/03/22 06:14:46;;;;;;;74.82;46.85;;;10.30;99.90;;;;;;7369689;19;20018;-67
2024/03/22 06:17:12;;;;;;;79.95;48.78;;;10.30;99.90;;;;;;7369870;19;20478;-67
2024/03/22 06:19:40;;;;;;;73.60;46.85;;;10.30;99.90;;;;;;7372143;19;20387;-67
2024/03/22 06:22:06;;;;;;;73.63;47.70;;;10.30;99.90;;;;;;7374364;19;20110;-67
2024/03/22 06:24:32;;;;;;;76.05;48.35;;;10.30;99.90;;;;;;7367107;19;20015;-67
2024/03/22 06:27:00;;;;;;;76.20;47.72;;;10.20;99.90;;;;;;7368869;19;20022;-68
2024/03/22 06:29:26;;;;;;;69.43;46.03;;;10.30;99.90;;;;;;7368660;19;20105;-67
2024/03/22 06:31:52;;;;;;;70.63;44.88;;;10.30;99.90;;;;;;7368327;19;20014;-69
2024/03/22 06:34:19;;;;;;;67.25;44.10;;;10.20;99.90;;;;;;7367828;19;20018;-68
2024/03/22 06:36:46;;;;;;;68.95;42.40;;;10.20;99.90;;;;;;7373833;19;20634;-68
2024/03/22 06:39:14;;;;;;;69.40;42.42;;;10.30;99.90;;;;;;7370182;19;20589;-66
2024/03/22 06:41:40;;;;;;;72.25;44.90;;;10.30;99.90;;;;;;7372684;19;20011;-69
2024/03/22 06:44:08;;;;;;;75.00;45.15;;;10.30;99.90;;;;;;7373429;19;20028;-69
2024/03/22 06:46:34;;;;;;;69.15;42.53;;;10.30;99.90;;;;;;7372709;19;20027;-69
2024/03/22 06:49:01;;;;;;;65.07;42.38;;;10.30;99.90;;;;;;7372639;19;20034;-69
2024/03/22 06:51:27;;;;;;;59.33;39.85;;;10.30;99.90;;;;;;7372183;19;20018;-69
2024/03/22 06:53:53;;;;;;;66.80;42.85;;;10.30;99.90;;;;;;7372463;19;20026;-69
2024/03/22 06:56:20;;;;;;;65.40;40.10;;;10.30;99.90;;;;;;7369777;19;20019;-67
2024/03/22 06:58:46;;;;;;;66.65;41.30;;;10.30;99.90;;;;;;7371726;19;20010;-66
2024/03/22 07:01:13;;;;;;;65.53;40.05;;;10.30;99.90;;;;;;7371656;19;20056;-68
2024/03/22 07:03:39;;;;;;;58.10;39.60;;;10.30;99.90;;;;;;7368672;19;20019;-68
2024/03/22 07:06:07;;;;;;;57.80;38.83;;;10.30;99.90;;;;;;7374224;19;20018;-65
2024/03/22 07:08:34;;;;;;;66.50;41.08;;;10.30;99.90;;;;;;7371010;19;20015;-65
2024/03/22 07:11:06;;;;;;;61.63;41.63;;;10.40;99.90;;;;;;7373680;19;20022;-65
2024/03/22 07:13:32;;;;;;;65.10;39.10;;;10.40;99.90;;;;;;7373692;19;20014;-64
2024/03/22 07:15:59;;;;;;;55.25;37.03;;;10.40;99.90;;;;;;7369778;19;20019;-65
2024/03/22 07:18:25;;;;;;;59.60;38.72;;;10.40;99.90;;;;;;7368508;19;20054;-65
2024/03/22 07:20:51;;;;;;;57.22;38.30;;;10.40;99.90;;;;;;7370787;19;20028;-64
2024/03/22 07:23:17;;;;;;;54.63;37.92;;;10.40;99.90;;;;;;7372605;19;20045;-65
2024/03/22 07:25:45;;;;;;;54.85;36.53;;;10.40;99.90;;;;;;7371366;19;20026;-65
2024/03/22 07:28:12;;;;;;;57.88;37.45;;;10.40;99.90;;;;;;7370145;19;20339;-65
2024/03/22 07:30:38;;;;;;;49.42;33.88;;;10.40;99.90;;;;;;7371069;19;20028;-65
2024/03/22 07:33:04;;;;;;;54.40;35.35;;;10.40;99.90;;;;;;7374375;19;20070;-64
2024/03/22 07:35:31;;;;;;;50.33;35.15;;;10.40;99.90;;;;;;7364829;19;20023;-64
2024/03/22 07:37:57;;;;;;;50.17;34.50;;;10.40;99.90;;;;;;7370934;19;20019;-66
2024/03/22 07:40:23;;;;;;;45.58;31.70;;;10.40;99.90;;;;;;7364307;19;20029;-66
2024/03/22 07:42:49;;;;;;;56.30;33.63;;;10.40;99.90;;;;;;7369887;19;20035;-66
2024/03/22 07:45:15;;;;;;;46.08;30.58;;;10.40;99.90;;;;;;7371251;19;20019;-66
2024/03/22 07:47:43;;;;;;;51.22;32.05;;;10.40;99.90;;;;;;7370998;19;20018;-66
2024/03/22 07:50:09;;;;;;;47.30;30.92;;;10.40;99.90;;;;;;7372336;19;20014;-66
2024/03/22 07:52:36;;;;;;;44.85;32.42;;;10.40;99.90;;;;;;7369090;19;20029;-66
2024/03/22 07:55:02;;;;;;;46.47;31.77;;;10.40;99.90;;;;;;7370470;19;20491;-66
2024/03/22 07:57:32;;;;;;;47.13;31.88;;;10.40;99.90;;;;;;7369835;19;20078;-66
2024/03/22 07:59:58;;;;;;;47.42;31.42;;;10.40;99.90;;;;;;7377177;19;20023;-66
2024/03/22 08:02:24;;;;;;;46.85;29.95;;;10.40;99.90;;;;;;7373694;19;20022;-67
2024/03/22 08:04:51;;;;;;;46.10;29.55;;;10.40;99.90;;;;;;7375886;19;20030;-69
2024/03/22 08:07:17;;;;;;;48.25;29.65;;;10.40;99.90;;;;;;7378821;19;20030;-66
2024/03/22 08:09:43;;;;;;;46.15;29.08;;;10.40;99.90;;;;;;7372573;19;20018;-66
2024/03/22 08:12:09;;;;;;;50.97;30.10;;;10.50;99.90;;;;;;7374944;19;20037;-62
2024/03/22 08:14:36;;;;;;;42.88;28.38;;;10.40;99.90;;;;;;7376726;19;20026;-66
2024/03/22 08:17:03;;;;;;;49.70;28.55;;;10.50;99.90;;;;;;7376366;19;20025;-65
2024/03/22 08:19:29;;;;;;;42.20;28.95;;;10.50;99.90;;;;;;7374253;19;20129;-66
2024/03/22 08:21:55;;;;;;;37.63;27.85;;;10.50;99.90;;;;;;7379910;19;20015;-66
2024/03/22 08:24:21;;;;;;;51.05;30.02;;;10.50;99.90;;;;;;7374740;19;20840;-66
2024/03/22 08:26:47;;;;;;;38.92;27.58;;;10.50;99.90;;;;;;7377502;19;20015;-69
2024/03/22 08:29:14;;;;;;;48.63;28.50;;;10.50;99.90;;;;;;7376261;19;20014;-69
2024/03/22 08:31:41;;;;;;;48.13;30.67;;;10.40;99.90;;;;;;7375875;19;20019;-66
2024/03/22 08:34:08;;;;;;;45.92;30.13;;;10.40;99.90;;;;;;7374536;19;20022;-66
2024/03/22 08:36:37;;;;;;;44.35;28.13;;;10.30;99.90;;;;;;7375575;19;20018;-68
2024/03/22 08:39:05;;;;;;;54.00;30.70;;;10.30;99.90;;;;;;7379889;19;20090;-68
2024/03/22 08:41:31;;;;;;;43.05;29.10;;;10.30;99.90;;;;;;7373421;19;20090;-67
2024/03/22 08:43:57;;;;;;;43.42;28.10;;;10.30;99.90;;;;;;7377993;19;20031;-68
2024/03/22 08:46:26;;;;;;;37.72;27.15;;;10.30;99.90;;;;;;7377353;19;20019;-65
2024/03/22 08:48:52;;;;;;;45.47;27.42;;;10.20;99.90;;;;;;7378836;19;20018;-67
2024/03/22 08:51:21;;;;;;;51.15;28.88;;;10.30;99.90;;;;;;7376975;19;20014;-66
2024/03/22 08:53:47;;;;;;;46.70;28.20;;;10.20;99.90;;;;;;7375063;19;20015;-67
2024/03/22 08:56:13;;;;;;;49.15;26.63;;;10.20;99.90;;;;;;7374725;19;20390;-67
2024/03/22 08:58:41;;;;;;;42.13;25.95;;;10.20;99.90;;;;;;7370085;19;20763;-70
2024/03/22 09:01:09;;;;;;;43.67;26.70;;;10.30;99.90;;;;;;7375445;19;20023;-70
2024/03/22 09:03:36;;;;;;;42.67;25.80;;;10.20;99.90;;;;;;7375444;19;20081;-69
2024/03/22 09:06:03;;;;;;;39.55;25.45;;;10.20;99.90;;;;;;7374477;19;20018;-69
2024/03/22 09:08:29;;;;;;;41.28;26.52;;;10.10;99.90;;;;;;7373352;19;20015;-68
2024/03/22 09:10:55;;;;;;;45.80;26.45;;;10.10;99.90;;;;;;7369563;19;20044;-68
2024/03/22 09:13:22;;;;;;;41.25;24.45;;;10.10;99.90;;;;;;7374360;19;20594;-68
2024/03/22 09:15:48;;;;;;;47.03;26.27;;;10.10;99.90;;;;;;7367344;19;20022;-69
2024/03/22 09:18:15;;;;;;;46.40;26.67;;;10.10;99.90;;;;;;7374548;19;20022;-69
2024/03/22 09:20:41;;;;;;;45.35;26.17;;;10.10;99.90;;;;;;7367240;19;20022;-69
2024/03/22 09:23:07;;;;;;;41.30;24.83;;;10.10;99.90;;;;;;7373442;19;20026;-70
2024/03/22 09:25:33;;;;;;;40.80;25.15;;;10.10;99.90;;;;;;7369719;19;20019;-67
2024/03/22 09:28:03;;;;;;;39.38;23.58;;;10.10;99.90;;;;;;7367784;19;20027;-66
2024/03/22 09:30:30;;;;;;;42.60;25.10;;;10.10;99.90;;;;;;7368029;19;20022;-70
2024/03/22 09:32:56;;;;;;;44.78;25.85;;;10.10;99.90;;;;;;7372735;19;20023;-69
2024/03/22 09:35:22;;;;;;;37.55;24.85;;;10.10;99.90;;;;;;7370341;19;20040;-69
2024/03/22 09:37:48;;;;;;;39.58;23.98;;;10.10;99.90;;;;;;7369784;19;20029;-69
2024/03/22 09:40:14;;;;;;;36.58;24.08;;;10.10;99.90;;;;;;7369641;19;20477;-69
2024/03/22 09:42:42;;;;;;;36.38;23.88;;;10.20;99.90;;;;;;7373815;19;20018;-69
2024/03/22 09:45:10;;;;;;;36.88;24.15;;;10.20;99.90;;;;;;7370604;19;20021;-70
2024/03/22 09:47:37;;;;;;;36.70;23.05;;;10.20;99.90;;;;;;7369492;19;20015;-66
2024/03/22 09:50:08;;;;;;;37.70;24.00;;;10.20;99.90;;;;;;7367959;19;20094;-66
2024/03/22 09:52:37;;;;;;;33.05;22.38;;;10.30;99.90;;;;;;7369074;19;20019;-68
2024/03/22 09:55:05;;;;;;;42.88;22.67;;;10.30;99.90;;;;;;7368884;19;20553;-66
2024/03/22 09:57:34;;;;;;;31.25;21.88;;;10.30;99.90;;;;;;7375645;19;20022;-70
2024/03/22 10:00:01;;;;;;;29.60;21.23;;;10.30;99.90;;;;;;7364888;19;20026;-70
2024/03/22 10:02:38;;;;;;;31.70;20.20;;;10.30;99.90;;;;;;7368280;19;20097;-70
2024/03/22 10:05:05;;;;;;;29.10;20.80;;;10.30;99.90;;;;;;7370443;19;20477;-68
2024/03/22 10:07:35;;;;;;;35.15;21.35;;;10.30;99.90;;;;;;7371829;19;20018;-70
2024/03/22 10:10:01;;;;;;;30.73;19.90;;;10.40;99.90;;;;;;7370345;19;20110;-71
2024/03/22 10:12:27;;;;;;;30.35;21.42;;;10.40;99.90;;;;;;7372478;19;20489;-71
2024/03/22 10:14:53;;;;;;;25.25;19.95;;;10.40;99.90;;;;;;7369332;19;20018;-70
2024/03/22 10:17:20;;;;;;;27.60;19.75;;;10.40;99.90;;;;;;7369425;19;20022;-70
2024/03/22 10:19:50;;;;;;;26.15;19.63;;;10.40;99.90;;;;;;7366504;19;20026;-70
2024/03/22 10:22:17;;;;;;;28.48;20.17;;;10.30;99.90;;;;;;7362502;19;20025;-70
2024/03/22 10:24:44;;;;;;;27.38;19.65;;;10.40;99.90;;;;;;7369082;19;20367;-71
2024/03/22 10:27:10;;;;;;;23.98;19.88;;;10.40;99.90;;;;;;7367509;19;20018;-66
2024/03/22 10:29:36;;;;;;;25.52;20.65;;;10.40;99.90;;;;;;7370575;19;20015;-66
2024/03/22 10:32:04;;;;;;;25.20;18.83;;;10.50;99.90;;;;;;7371360;19;20085;-71
2024/03/22 10:34:32;;;;;;;25.58;18.67;;;10.40;99.90;;;;;;7371185;19;20022;-67
2024/03/22 10:37:03;;;;;;;21.65;17.60;;;10.40;99.90;;;;;;7371523;19;20485;-65
2024/03/22 10:39:33;;;;;;;22.88;16.60;;;10.50;99.90;;;;;;7367826;19;20023;-67
2024/03/22 10:41:59;;;;;;;24.05;16.33;;;10.50;99.90;;;;;;7366085;19;20036;-71
2024/03/22 10:44:25;;;;;;;20.70;15.80;;;10.50;99.90;;;;;;7370824;19;20093;-72
2024/03/22 10:46:55;;;;;;;19.73;15.93;;;10.50;99.90;;;;;;7364573;19;20034;-70
2024/03/22 10:49:23;;;;;;;;;;;10.50;99.90;;;;;;7363367;19;20044;-71
2024/03/22 10:51:56;;;;;;;18.58;12.70;;;10.60;99.90;;;;;;7365609;19;19944;-66
2024/03/22 10:54:26;;;;;;;14.73;12.50;;;10.50;99.90;;;;;;7364165;19;20056;-65
2024/03/22 10:56:54;;;;;;;20.98;13.57;;;10.50;99.90;;;;;;7362668;19;21003;-66
2024/03/22 10:59:22;;;;;;;13.70;11.45;;;10.50;99.90;;;;;;7366079;19;20036;-65
2024/03/22 11:01:49;;;;;;;17.70;12.35;;;10.50;99.90;;;;;;7362185;19;20022;-70
2024/03/22 11:04:17;;;;;;;14.95;12.25;;;10.60;99.90;;;;;;7362667;19;20101;-70
2024/03/22 11:06:51;;;;;;;13.55;10.35;;;10.60;99.90;;;;;;7368578;19;20032;-70
2024/03/22 11:09:27;;;;;;;16.33;12.02;;;10.60;99.90;;;;;;7361154;19;20019;-70
2024/03/22 11:11:55;;;;;;;11.93;9.70;;;10.70;99.90;;;;;;7365139;19;20011;-68
2024/03/22 11:14:21;;;;;;;11.30;9.50;;;10.70;99.90;;;;;;7362873;19;20022;-70
2024/03/22 11:16:48;;;;;;;13.63;9.85;;;10.70;99.90;;;;;;7364782;19;20100;-66
2024/03/22 11:19:14;;;;;;;10.85;9.48;;;10.80;99.90;;;;;;7363507;19;20077;-65
2024/03/22 11:21:40;;;;;;;10.32;8.65;;;10.90;99.90;;;;;;7364733;19;20036;-65
2024/03/22 11:24:06;;;;;;;11.57;9.23;;;10.90;99.90;;;;;;7368341;19;20764;-65
2024/03/22 11:26:33;;;;;;;10.30;7.82;;;10.90;99.90;;;;;;7364126;19;20021;-62
2024/03/22 11:29:00;;;;;;;9.48;7.35;;;10.80;99.90;;;;;;7367596;19;20018;-70
2024/03/22 11:31:29;;;;;;;10.18;7.82;;;10.70;99.90;;;;;;7363509;19;20041;-70
2024/03/22 11:33:57;;;;;;;11.63;8.30;;;10.80;99.90;;;;;;7376129;19;20024;-65
2024/03/22 11:36:23;;;;;;;9.90;7.80;;;10.90;99.90;;;;;;7371566;19;20046;-65
2024/03/22 11:38:52;;;;;;;11.05;7.30;;;10.90;99.90;;;;;;7375773;19;20022;-65
2024/03/22 11:41:25;;;;;;;10.70;7.35;;;10.90;99.90;;;;;;7371070;19;20066;-67
2024/03/22 11:43:53;;;;;;;9.60;7.00;;;10.90;99.90;;;;;;7374981;19;20030;-71
2024/03/22 11:46:21;;;;;;;10.52;7.43;;;10.90;99.90;;;;;;7376809;19;20026;-70
2024/03/22 11:48:54;;;;;;;9.73;6.00;;;10.80;99.90;;;;;;7372878;19;20026;-70
2024/03/22 11:51:21;;;;;;;8.15;6.18;;;10.80;99.90;;;;;;7380020;19;20022;-70
2024/03/22 11:53:55;;;;;;;8.75;6.20;;;10.70;99.90;;;;;;7372283;19;20011;-69
2024/03/22 11:56:22;;;;;;;8.82;5.78;;;10.60;99.90;;;;;;7376768;19;20039;-70
2024/03/22 11:58:49;;;;;;;7.95;5.65;;;10.60;99.90;;;;;;7370863;19;20018;-69
2024/03/22 12:01:16;;;;;;;9.10;5.53;;;10.60;99.90;;;;;;7376050;19;20026;-65
2024/03/22 12:03:44;;;;;;;6.63;5.07;;;10.60;99.90;;;;;;7371393;19;20068;-69
2024/03/22 12:06:11;;;;;;;7.70;5.57;;;10.80;99.90;;;;;;7377539;19;20515;-69
2024/03/22 12:08:40;;;;;;;9.40;5.47;;;10.70;99.90;;;;;;7375937;19;20887;-69
2024/03/22 12:11:10;;;;;;;9.82;7.63;;;10.70;99.90;;;;;;7379116;19;20018;-65
2024/03/22 12:13:38;;;;;;;8.55;5.88;;;10.80;99.90;;;;;;7373089;19;20018;-64
2024/03/22 12:16:08;;;;;;;7.65;5.85;;;10.90;99.90;;;;;;7370454;19;20098;-64
2024/03/22 12:18:34;;;;;;;7.45;5.63;;;10.90;99.90;;;;;;7370493;19;20028;-68
2024/03/22 12:21:03;;;;;;;8.35;5.45;;;10.90;99.90;;;;;;7373930;19;20022;-65
2024/03/22 12:23:29;;;;;;;9.88;5.68;;;10.90;99.90;;;;;;7372613;19;20018;-65
2024/03/22 12:25:55;;;;;;;9.02;5.93;;;10.80;99.90;;;;;;7372350;19;20019;-69
2024/03/22 12:28:22;;;;;;;6.68;4.00;;;10.90;99.90;;;;;;7374515;19;20740;-68
2024/03/22 12:30:51;;;;;;;6.95;4.55;;;10.80;99.90;;;;;;7372721;19;20014;-69
2024/03/22 12:33:17;;;;;;;5.65;3.83;;;10.80;99.90;;;;;;7370584;19;20056;-68